Time,TemperatureF,DewpointF,PressureIn,WindDirection,WindDirectionDegrees,WindSpeedMPH,WindSpeedGustMPH,Humidity,HourlyPrecipIn,Conditions,Clouds,dailyrainin,SoftwareType,DateUTC
2013-01-29 00:03:00,52.9,49.8,29.00,WNW,293,1.7,6.0,90,-99.99,,,-99.99,WSDL version 420,2013-01-29 05:03:00,
2013-01-29 00:05:00,52.9,50.0,29.00,NW,304,3.4,6.0,90,-99.99,,,-99.99,WSDL version 420,2013-01-29 05:05:00,
2013-01-29 00:06:00,52.9,50.0,29.00,West,281,3.1,6.0,90,-99.99,,,-99.99,WSDL version 420,2013-01-29 05:06:00,
2013-01-29 00:11:00,52.9,50.0,29.00,West,275,3.2,4.9,90,-99.99,,,-99.99,WSDL version 420,2013-01-29 05:11:00,
2013-01-29 00:13:00,52.9,50.0,29.00,West,281,2.8,4.7,90,-99.99,,,-99.99,WSDL version 420,2013-01-29 05:13:00,
2013-01-29 00:18:00,52.8,50.0,29.00,West,280,2.6,7.4,90,-99.99,,,-99.99,WSDL version 420,2013-01-29 05:18:00,
2013-01-29 00:23:00,53.0,50.4,29.00,West,267,2.1,7.4,91,-99.99,,,-99.99,WSDL version 420,2013-01-29 05:23:00,
2013-01-29 00:28:00,53.0,50.4,29.00,WNW,285,1.5,6.0,91,-99.99,,,-99.99,WSDL version 420,2013-01-29 05:28:00,
2013-01-29 00:33:00,52.8,50.3,29.00,WNW,301,0.8,6.0,91,-99.99,,,-99.99,WSDL version 420,2013-01-29 05:33:00,
2013-01-29 00:38:00,52.7,50.1,29.00,West,280,1.3,3.8,90,-99.99,,,-99.99,WSDL version 420,2013-01-29 05:38:00,
2013-01-29 00:43:00,52.5,49.7,29.00,WNW,285,0.0,3.8,90,-99.99,,,-99.99,WSDL version 420,2013-01-29 05:43:00,
2013-01-29 00:48:00,52.5,49.7,29.00,WNW,284,0.3,2.9,90,-99.99,,,-99.99,WSDL version 420,2013-01-29 05:48:00,
2013-01-29 00:53:00,52.6,49.9,29.00,WNW,290,1.1,3.1,91,-99.99,,,-99.99,WSDL version 420,2013-01-29 05:53:00,
2013-01-29 00:58:00,52.5,50.0,29.00,West,262,2.2,3.8,91,-99.99,,,-99.99,WSDL version 420,2013-01-29 05:58:00,
2013-01-29 01:03:00,52.8,50.3,29.00,WNW,288,2.1,6.0,91,-99.99,,,-99.99,WSDL version 420,2013-01-29 06:03:00,
2013-01-29 01:08:00,52.7,50.3,29.00,West,273,0.9,6.0,92,-99.99,,,-99.99,WSDL version 420,2013-01-29 06:08:00,
2013-01-29 01:13:00,52.7,50.5,29.00,WNW,288,2.2,3.4,92,-99.99,,,-99.99,WSDL version 420,2013-01-29 06:13:00,
2013-01-29 01:18:00,52.7,50.5,29.00,NW,305,2.5,7.2,92,-99.99,,,-99.99,WSDL version 420,2013-01-29 06:18:00,
2013-01-29 01:23:00,52.9,50.7,29.00,West,273,3.2,7.4,92,-99.99,,,-99.99,WSDL version 420,2013-01-29 06:23:00,
2013-01-29 01:28:00,52.8,50.9,29.00,WNW,285,2.9,7.4,93,-99.99,,,-99.99,WSDL version 420,2013-01-29 06:28:00,
2013-01-29 01:33:00,52.7,50.8,29.00,WNW,284,1.7,6.5,93,-99.99,,,-99.99,WSDL version 420,2013-01-29 06:33:00,
2013-01-29 01:38:00,52.6,50.7,28.97,West,273,0.0,6.5,92,-99.99,,,-99.99,WSDL version 420,2013-01-29 06:38:00,
2013-01-29 01:43:00,52.6,50.4,28.97,NW,310,1.7,3.4,92,-99.99,,,-99.99,WSDL version 420,2013-01-29 06:43:00,
2013-01-29 01:48:00,52.7,50.8,28.97,West,275,3.1,5.6,93,-99.99,,,-99.99,WSDL version 420,2013-01-29 06:48:00,
2013-01-29 01:53:00,52.8,51.0,29.00,WNW,285,2.5,5.6,93,-99.99,,,-99.99,WSDL version 420,2013-01-29 06:53:00,
2013-01-29 01:58:00,52.7,50.8,29.00,WNW,295,0.7,4.3,93,-99.99,,,-99.99,WSDL version 420,2013-01-29 06:58:00,
2013-01-29 02:03:00,52.7,50.8,29.00,West,278,0.5,3.4,93,-99.99,,,-99.99,WSDL version 420,2013-01-29 07:03:00,
2013-01-29 02:08:00,52.6,50.7,29.00,West,281,2.3,4.7,93,-99.99,,,-99.99,WSDL version 420,2013-01-29 07:08:00,
2013-01-29 02:13:00,52.7,50.8,29.00,West,278,1.3,4.7,93,-99.99,,,-99.99,WSDL version 420,2013-01-29 07:13:00,
2013-01-29 02:18:00,52.8,50.9,29.00,NW,304,0.7,5.4,93,-99.99,,,-99.99,WSDL version 420,2013-01-29 07:18:00,
2013-01-29 02:23:00,52.8,51.2,28.97,WNW,285,0.8,5.4,94,-99.99,,,-99.99,WSDL version 420,2013-01-29 07:23:00,
2013-01-29 02:28:00,52.8,51.3,28.97,WNW,288,2.3,4.9,94,-99.99,,,-99.99,WSDL version 420,2013-01-29 07:28:00,
2013-01-29 02:33:00,52.8,51.3,28.97,WNW,295,0.7,4.9,94,-99.99,,,-99.99,WSDL version 420,2013-01-29 07:33:00,
2013-01-29 02:38:00,52.8,51.3,29.00,WNW,295,0.7,4.3,94,-99.99,,,-99.99,WSDL version 420,2013-01-29 07:38:00,
2013-01-29 02:43:00,52.9,51.4,29.00,West,278,2.0,5.8,94,-99.99,,,-99.99,WSDL version 420,2013-01-29 07:43:00,
2013-01-29 02:48:00,52.7,51.2,29.00,WNW,283,0.9,5.8,94,-99.99,,,-99.99,WSDL version 420,2013-01-29 07:48:00,
2013-01-29 02:53:00,52.8,51.2,29.00,WNW,295,3.2,6.0,94,-99.99,,,-99.99,WSDL version 420,2013-01-29 07:53:00,
2013-01-29 02:58:00,52.9,51.3,29.00,NW,308,1.1,6.0,94,-99.99,,,-99.99,WSDL version 420,2013-01-29 07:58:00,
2013-01-29 03:03:00,52.8,51.2,29.00,West,276,1.8,4.7,94,-99.99,,,-99.99,WSDL version 420,2013-01-29 08:03:00,
2013-01-29 03:08:00,52.9,51.3,29.00,WNW,290,0.0,4.0,94,-99.99,,,-99.99,WSDL version 420,2013-01-29 08:08:00,
2013-01-29 03:13:00,52.6,51.1,29.00,NW,310,0.0,2.0,94,-99.99,,,-99.99,WSDL version 420,2013-01-29 08:13:00,
2013-01-29 03:18:00,52.5,50.7,29.00,WNW,295,0.0,0.0,93,-99.99,,,-99.99,WSDL version 420,2013-01-29 08:18:00,
2013-01-29 03:23:00,52.3,50.4,28.97,WNW,300,0.0,0.0,93,-99.99,,,-99.99,WSDL version 420,2013-01-29 08:23:00,
2013-01-29 03:28:00,52.1,50.3,28.97,South,191,0.0,0.0,93,-99.99,,,-99.99,WSDL version 420,2013-01-29 08:28:00,
2013-01-29 03:33:00,52.1,50.3,28.97,West,273,0.4,2.9,93,-99.99,,,-99.99,WSDL version 420,2013-01-29 08:33:00,
2013-01-29 03:38:00,51.9,50.0,28.97,West,270,0.0,2.9,92,-99.99,,,-99.99,WSDL version 420,2013-01-29 08:38:00,
2013-01-29 03:43:00,51.6,49.5,28.97,WNW,287,1.8,4.0,92,-99.99,,,-99.99,WSDL version 420,2013-01-29 08:43:00,
2013-01-29 03:48:00,51.0,48.6,28.97,WNW,283,0.0,4.0,91,-99.99,,,-99.99,WSDL version 420,2013-01-29 08:48:00,
2013-01-29 03:53:00,51.0,48.5,28.97,West,278,1.1,3.1,91,-99.99,,,-99.99,WSDL version 420,2013-01-29 08:53:00,
2013-01-29 03:58:00,50.9,48.5,28.97,West,270,0.0,3.1,92,-99.99,,,-99.99,WSDL version 420,2013-01-29 08:58:00,
2013-01-29 04:03:00,50.7,48.4,28.97,SSE,163,0.0,0.0,91,-99.99,,,-99.99,WSDL version 420,2013-01-29 09:03:00,
2013-01-29 04:08:00,50.7,48.4,28.97,WNW,285,0.2,2.2,92,-99.99,,,-99.99,WSDL version 420,2013-01-29 09:08:00,
2013-01-29 04:13:00,50.4,47.9,28.97,West,270,0.0,2.2,91,-99.99,,,-99.99,WSDL version 420,2013-01-29 09:13:00,
2013-01-29 04:18:00,50.4,48.0,28.97,North,360,0.0,0.0,92,-99.99,,,-99.99,WSDL version 420,2013-01-29 09:18:00,
2013-01-29 04:23:00,50.2,47.8,28.97,NW,315,0.5,2.9,91,-99.99,,,-99.99,WSDL version 420,2013-01-29 09:23:00,
2013-01-29 04:28:00,50.1,47.6,28.97,WSW,242,0.2,2.9,91,-99.99,,,-99.99,WSDL version 420,2013-01-29 09:28:00,
2013-01-29 04:33:00,50.0,47.9,28.97,WNW,293,0.0,1.3,92,-99.99,,,-99.99,WSDL version 420,2013-01-29 09:33:00,
2013-01-29 04:38:00,49.7,47.6,28.97,North,6,0.0,0.0,92,-99.99,,,-99.99,WSDL version 420,2013-01-29 09:38:00,
2013-01-29 04:43:00,49.6,47.5,28.97,NNW,330,0.0,1.1,92,-99.99,,,-99.99,WSDL version 420,2013-01-29 09:43:00,
2013-01-29 04:48:00,49.9,47.9,28.97,SW,225,0.0,1.1,93,-99.99,,,-99.99,WSDL version 420,2013-01-29 09:48:00,
2013-01-29 04:53:00,49.8,48.0,28.97,West,270,0.0,0.0,93,-99.99,,,-99.99,WSDL version 420,2013-01-29 09:53:00,
2013-01-29 04:58:00,49.9,48.1,28.97,West,278,0.0,0.0,93,-99.99,,,-99.99,WSDL version 420,2013-01-29 09:58:00,
2013-01-29 05:03:00,50.3,48.5,28.97,WNW,301,1.0,2.9,94,-99.99,,,-99.99,WSDL version 420,2013-01-29 10:03:00,
2013-01-29 05:08:00,50.9,49.4,28.97,WSW,248,0.0,2.9,94,-99.99,,,-99.99,WSDL version 420,2013-01-29 10:08:00,
2013-01-29 05:13:00,51.1,49.8,28.97,NW,309,0.3,2.9,96,-99.99,,,-99.99,WSDL version 420,2013-01-29 10:13:00,
2013-01-29 05:18:00,51.2,49.9,28.97,WNW,283,0.0,2.9,94,-99.99,,,-99.99,WSDL version 420,2013-01-29 10:18:00,
2013-01-29 05:23:00,51.4,49.8,28.97,SW,235,0.6,2.9,94,-99.99,,,-99.99,WSDL version 420,2013-01-29 10:23:00,
2013-01-29 05:28:00,51.8,50.3,28.97,WNW,284,2.2,4.9,94,-99.99,,,-99.99,WSDL version 420,2013-01-29 10:28:00,
2013-01-29 05:33:00,52.2,50.9,28.97,WNW,288,0.0,4.9,96,-99.99,,,-99.99,WSDL version 420,2013-01-29 10:33:00,
2013-01-29 05:38:00,52.0,50.6,29.00,WSW,256,0.0,4.9,94,-99.99,,,-99.99,WSDL version 420,2013-01-29 10:38:00,
2013-01-29 05:43:00,51.9,50.4,29.00,West,273,1.0,4.7,94,-99.99,,,-99.99,WSDL version 420,2013-01-29 10:43:00,
2013-01-29 05:48:00,52.3,50.7,29.00,NW,304,1.5,4.7,94,-99.99,,,-99.99,WSDL version 420,2013-01-29 10:48:00,
2013-01-29 05:53:00,52.5,51.3,28.97,West,268,1.4,4.5,96,-99.99,,,-99.99,WSDL version 420,2013-01-29 10:53:00,
2013-01-29 05:58:00,52.7,51.4,28.97,NW,308,1.1,4.3,96,-99.99,,,-99.99,WSDL version 420,2013-01-29 10:58:00,
2013-01-29 06:03:00,52.6,51.4,28.97,West,273,0.5,4.9,96,-99.99,,,-99.99,WSDL version 420,2013-01-29 11:03:00,
2013-01-29 06:08:00,52.4,51.2,28.97,WSW,245,0.4,4.9,96,-99.99,,,-99.99,WSDL version 420,2013-01-29 11:08:00,
2013-01-29 06:13:00,52.8,51.5,28.97,SSW,205,1.9,4.0,96,-99.99,,,-99.99,WSDL version 420,2013-01-29 11:13:00,
2013-01-29 06:18:00,52.8,51.5,28.97,WSW,258,0.0,4.0,96,-99.99,,,-99.99,WSDL version 420,2013-01-29 11:18:00,
2013-01-29 06:23:00,52.5,51.3,28.97,SSE,163,0.0,0.0,96,-99.99,,,-99.99,WSDL version 420,2013-01-29 11:23:00,
2013-01-29 06:28:00,52.4,51.2,28.97,SW,220,0.5,3.1,96,-99.99,,,-99.99,WSDL version 420,2013-01-29 11:28:00,
2013-01-29 06:33:00,52.4,51.2,28.97,NW,323,0.0,3.1,96,-99.99,,,-99.99,WSDL version 420,2013-01-29 11:33:00,
2013-01-29 06:38:00,52.2,50.8,29.00,South,191,0.0,0.9,94,-99.99,,,-99.99,WSDL version 420,2013-01-29 11:38:00,
2013-01-29 06:43:00,52.1,50.6,29.00,SW,218,0.0,1.6,94,-99.99,,,-99.99,WSDL version 420,2013-01-29 11:43:00,
2013-01-29 06:48:00,51.7,50.1,29.00,NW,321,0.2,2.2,94,-99.99,,,-99.99,WSDL version 420,2013-01-29 11:48:00,
2013-01-29 06:53:00,51.8,50.3,28.97,West,278,0.4,2.2,94,-99.99,,,-99.99,WSDL version 420,2013-01-29 11:53:00,
2013-01-29 06:58:00,51.5,50.0,28.97,WNW,293,1.3,3.4,94,-99.99,,,-99.99,WSDL version 420,2013-01-29 11:58:00,
2013-01-29 07:03:00,52.3,50.9,28.97,WNW,303,0.0,6.3,96,-99.99,,,-99.99,WSDL version 420,2013-01-29 12:03:00,
2013-01-29 07:08:00,52.7,51.5,28.97,NW,313,0.6,6.3,96,-99.99,,,-99.99,WSDL version 420,2013-01-29 12:08:00,
2013-01-29 07:13:00,52.8,51.9,28.97,WSW,245,0.0,6.3,97,-99.99,,,-99.99,WSDL version 420,2013-01-29 12:13:00,
2013-01-29 07:18:00,52.9,52.0,28.97,WSW,243,0.2,3.1,97,-99.99,,,-99.99,WSDL version 420,2013-01-29 12:18:00,
2013-01-29 07:23:00,53.0,52.1,28.97,NW,326,0.0,2.5,97,-99.99,,,-99.99,WSDL version 420,2013-01-29 12:23:00,
2013-01-29 07:28:00,52.9,52.0,28.97,WNW,290,0.0,0.0,97,-99.99,,,-99.99,WSDL version 420,2013-01-29 12:28:00,
2013-01-29 07:33:00,52.9,52.0,28.97,WSW,250,1.0,3.1,97,-99.99,,,-99.99,WSDL version 420,2013-01-29 12:33:00,
2013-01-29 07:38:00,52.9,51.8,28.97,WNW,303,0.0,3.1,96,-99.99,,,-99.99,WSDL version 420,2013-01-29 12:38:00,
2013-01-29 07:43:00,53.0,51.7,28.97,WSW,255,0.6,2.7,96,-99.99,,,-99.99,WSDL version 420,2013-01-29 12:43:00,
2013-01-29 07:48:00,52.9,51.7,28.97,WSW,248,0.0,2.7,96,-99.99,,,-99.99,WSDL version 420,2013-01-29 12:48:00,
2013-01-29 07:53:00,52.9,51.7,29.00,WSW,258,0.0,2.2,96,-99.99,,,-99.99,WSDL version 420,2013-01-29 12:53:00,
2013-01-29 07:58:00,52.8,51.5,29.00,SSW,203,0.0,2.2,96,-99.99,,,-99.99,WSDL version 420,2013-01-29 12:58:00,
2013-01-29 08:03:00,52.7,51.5,29.00,NW,305,0.7,3.4,96,-99.99,,,-99.99,WSDL version 420,2013-01-29 13:03:00,
2013-01-29 08:08:00,52.9,51.6,29.00,WSW,248,0.0,3.4,96,-99.99,,,-99.99,WSDL version 420,2013-01-29 13:08:00,
2013-01-29 08:13:00,52.8,51.4,29.00,WSW,248,0.0,3.6,96,-99.99,,,-99.99,WSDL version 420,2013-01-29 13:13:00,
2013-01-29 08:18:00,53.1,51.9,29.00,SW,233,0.0,3.6,96,-99.99,,,-99.99,WSDL version 420,2013-01-29 13:18:00,
2013-01-29 08:23:00,53.4,52.2,28.97,West,270,0.0,0.0,96,-99.99,,,-99.99,WSDL version 420,2013-01-29 13:23:00,
2013-01-29 08:28:00,53.8,52.5,28.97,SSE,158,0.0,0.0,96,-99.99,,,-99.99,WSDL version 420,2013-01-29 13:28:00,
2013-01-29 08:33:00,53.7,52.5,28.97,SSE,158,0.0,0.0,96,-99.99,,,-99.99,WSDL version 420,2013-01-29 13:33:00,
2013-01-29 08:38:00,53.6,52.0,28.97,ENE,70,0.0,0.0,94,-99.99,,,-99.99,WSDL version 420,2013-01-29 13:38:00,
2013-01-29 08:44:00,53.5,51.9,28.97,South,180,0.0,0.0,94,-99.99,,,-99.99,WSDL version 420,2013-01-29 13:44:00,
2013-01-29 08:49:00,53.7,51.8,28.97,SSE,165,0.4,2.5,93,-99.99,,,-99.99,WSDL version 420,2013-01-29 13:49:00,
2013-01-29 08:54:00,53.9,52.1,29.00,SSW,211,0.4,3.4,93,-99.99,,,-99.99,WSDL version 420,2013-01-29 13:54:00,
2013-01-29 08:59:00,54.2,52.4,29.00,SSW,205,0.8,3.6,94,-99.99,,,-99.99,WSDL version 420,2013-01-29 13:59:00,
2013-01-29 09:04:00,54.4,52.9,29.00,South,180,0.0,3.6,94,-99.99,,,-99.99,WSDL version 420,2013-01-29 14:04:00,
2013-01-29 09:09:00,54.6,53.0,29.00,South,180,0.0,2.5,94,-99.99,,,-99.99,WSDL version 420,2013-01-29 14:09:00,
2013-01-29 09:14:00,54.8,52.9,29.00,South,173,0.4,2.0,93,-99.99,,,-99.99,WSDL version 420,2013-01-29 14:14:00,
2013-01-29 09:19:00,55.0,53.1,29.00,South,174,0.8,2.9,93,-99.99,,,-99.99,WSDL version 420,2013-01-29 14:19:00,
2013-01-29 09:24:00,55.4,53.3,28.97,South,175,0.0,2.9,92,-99.99,,,-99.99,WSDL version 420,2013-01-29 14:24:00,
2013-01-29 09:29:00,55.5,53.3,28.97,South,186,0.0,0.0,92,-99.99,,,-99.99,WSDL version 420,2013-01-29 14:29:00,
2013-01-29 09:34:00,55.8,53.4,28.97,SE,135,0.0,2.2,91,-99.99,,,-99.99,WSDL version 420,2013-01-29 14:34:00,
2013-01-29 09:39:00,55.8,53.3,28.97,NW,323,0.0,2.2,91,-99.99,,,-99.99,WSDL version 420,2013-01-29 14:39:00,
2013-01-29 09:44:00,55.9,53.0,28.97,SSE,158,0.0,0.0,90,-99.99,,,-99.99,WSDL version 420,2013-01-29 14:44:00,
2013-01-29 09:49:00,55.9,52.9,28.97,SSW,203,0.0,0.0,89,-99.99,,,-99.99,WSDL version 420,2013-01-29 14:49:00,
2013-01-29 09:54:00,56.3,53.1,28.97,ESE,118,0.0,0.0,89,-99.99,,,-99.99,WSDL version 420,2013-01-29 14:54:00,
2013-01-29 09:59:00,57.0,53.9,28.97,SSW,198,0.0,0.0,89,-99.99,,,-99.99,WSDL version 420,2013-01-29 14:59:00,
2013-01-29 10:04:00,58.2,55.0,28.97,West,270,0.0,0.0,89,-99.99,,,-99.99,WSDL version 420,2013-01-29 15:04:00,
2013-01-29 10:09:00,58.8,55.2,28.97,SSW,200,1.4,3.1,86,-99.99,,,-99.99,WSDL version 420,2013-01-29 15:09:00,
2013-01-29 10:14:00,59.0,53.8,28.97,SSE,149,0.0,3.1,81,-99.99,,,-99.99,WSDL version 420,2013-01-29 15:14:00,
2013-01-29 10:19:00,61.7,56.2,28.97,WSW,240,0.4,2.9,82,-99.99,,,-99.99,WSDL version 420,2013-01-29 15:19:00,
2013-01-29 10:24:00,63.6,53.7,28.97,West,263,3.1,6.3,54,-99.99,,,-99.99,WSDL version 420,2013-01-29 15:24:00,
2013-01-29 10:29:00,64.0,43.8,28.97,WNW,293,3.6,6.5,45,-99.99,,,-99.99,WSDL version 420,2013-01-29 15:29:00,
2013-01-29 10:34:00,64.7,40.7,28.97,West,263,2.9,7.2,38,-99.99,,,-99.99,WSDL version 420,2013-01-29 15:34:00,
2013-01-29 10:39:00,64.3,38.2,28.97,WNW,298,3.6,7.4,39,-99.99,,,-99.99,WSDL version 420,2013-01-29 15:39:00,
2013-01-29 10:44:00,65.6,38.5,28.97,WNW,300,3.4,7.4,37,-99.99,,,-99.99,WSDL version 420,2013-01-29 15:44:00,
2013-01-29 10:49:00,65.5,38.2,28.97,WNW,285,4.6,6.5,34,-99.99,,,-99.99,WSDL version 420,2013-01-29 15:49:00,
2013-01-29 10:54:00,65.6,37.1,28.97,West,273,3.7,6.7,35,-99.99,,,-99.99,WSDL version 420,2013-01-29 15:54:00,
2013-01-29 10:59:00,65.5,36.5,28.97,WNW,293,4.5,7.8,35,-99.99,,,-99.99,WSDL version 420,2013-01-29 15:59:00,
2013-01-29 11:04:00,67.1,37.5,28.97,West,259,3.7,10.7,33,-99.99,,,-99.99,WSDL version 420,2013-01-29 16:04:00,
2013-01-29 11:09:00,67.6,36.9,28.97,WNW,300,5.0,11.0,30,-99.99,,,-99.99,WSDL version 420,2013-01-29 16:09:00,
2013-01-29 11:14:00,66.9,35.7,28.97,West,273,3.5,11.0,33,-99.99,,,-99.99,WSDL version 420,2013-01-29 16:14:00,
2013-01-29 11:19:00,66.6,35.4,28.97,WNW,295,5.6,9.6,32,-99.99,,,-99.99,WSDL version 420,2013-01-29 16:19:00,
2013-01-29 11:24:00,66.4,35.0,28.97,WNW,290,5.9,9.6,31,-99.99,,,-99.99,WSDL version 420,2013-01-29 16:24:00,
2013-01-29 11:29:00,66.7,35.5,28.97,WNW,295,5.5,8.7,32,-99.99,,,-99.99,WSDL version 420,2013-01-29 16:29:00,
2013-01-29 11:34:00,67.1,35.5,28.97,WNW,295,5.4,8.7,32,-99.99,,,-99.99,WSDL version 420,2013-01-29 16:34:00,
2013-01-29 11:39:00,66.8,34.6,28.97,WNW,301,6.7,10.1,30,-99.99,,,-99.99,WSDL version 420,2013-01-29 16:39:00,
2013-01-29 11:44:00,66.4,35.1,28.97,WSW,255,4.0,10.1,33,-99.99,,,-99.99,WSDL version 420,2013-01-29 16:44:00,
2013-01-29 11:49:00,66.0,35.7,28.97,West,264,7.0,12.3,32,-99.99,,,-99.99,WSDL version 420,2013-01-29 16:49:00,
2013-01-29 11:54:00,66.1,35.9,28.97,WNW,298,6.1,12.3,32,-99.99,,,-99.99,WSDL version 420,2013-01-29 16:54:00,
2013-01-29 11:59:00,67.0,35.5,28.97,WNW,298,6.0,10.5,31,-99.99,,,-99.99,WSDL version 420,2013-01-29 16:59:00,
2013-01-29 12:04:00,67.3,35.4,28.97,WNW,300,4.2,10.5,31,-99.99,,,-99.99,WSDL version 420,2013-01-29 17:04:00,
2013-01-29 12:09:00,67.6,33.9,28.94,WNW,295,6.9,8.7,28,-99.99,,,-99.99,WSDL version 420,2013-01-29 17:09:00,
2013-01-29 12:14:00,67.1,33.8,28.94,NW,304,5.2,8.5,29,-99.99,,,-99.99,WSDL version 420,2013-01-29 17:14:00,
2013-01-29 12:19:00,66.8,34.0,28.94,WNW,288,6.2,11.0,30,-99.99,,,-99.99,WSDL version 420,2013-01-29 17:19:00,
2013-01-29 12:24:00,66.8,34.8,28.94,WNW,287,3.9,11.0,31,-99.99,,,-99.99,WSDL version 420,2013-01-29 17:24:00,
2013-01-29 12:29:00,68.6,35.4,28.94,WNW,293,4.6,7.6,28,-99.99,,,-99.99,WSDL version 420,2013-01-29 17:29:00,
2013-01-29 12:34:00,69.5,33.6,28.94,West,278,5.9,8.1,26,-99.99,,,-99.99,WSDL version 420,2013-01-29 17:34:00,
2013-01-29 12:39:00,69.0,33.9,28.94,West,278,3.9,8.1,26,-99.99,,,-99.99,WSDL version 420,2013-01-29 17:39:00,
2013-01-29 12:44:00,69.0,33.3,28.94,WNW,295,3.2,7.2,27,-99.99,,,-99.99,WSDL version 420,2013-01-29 17:44:00,
2013-01-29 12:49:00,69.6,33.2,28.94,West,276,5.3,8.7,25,-99.99,,,-99.99,WSDL version 420,2013-01-29 17:49:00,
2013-01-29 12:54:00,70.5,32.4,28.94,SW,223,5.0,11.2,24,-99.99,,,-99.99,WSDL version 420,2013-01-29 17:54:00,
2013-01-29 12:59:00,71.0,32.8,28.94,West,278,5.6,11.2,24,-99.99,,,-99.99,WSDL version 420,2013-01-29 17:59:00,
2013-01-29 13:04:00,71.4,32.0,28.94,West,280,6.7,10.3,23,-99.99,,,-99.99,WSDL version 420,2013-01-29 18:04:00,
2013-01-29 13:09:00,71.5,32.0,28.94,West,262,5.0,9.4,23,-99.99,,,-99.99,WSDL version 420,2013-01-29 18:09:00,
2013-01-29 13:14:00,71.2,31.5,28.94,SSW,210,3.2,10.5,23,-99.99,,,-99.99,WSDL version 420,2013-01-29 18:14:00,
2013-01-29 13:19:00,71.2,31.6,28.94,WNW,285,5.7,10.5,23,-99.99,,,-99.99,WSDL version 420,2013-01-29 18:19:00,
2013-01-29 13:24:00,72.6,32.3,28.91,WSW,254,4.5,8.1,23,-99.99,,,-99.99,WSDL version 420,2013-01-29 18:24:00,
2013-01-29 13:29:00,73.8,33.1,28.91,West,270,2.8,7.6,22,-99.99,,,-99.99,WSDL version 420,2013-01-29 18:29:00,
2013-01-29 13:34:00,73.3,32.2,28.91,West,259,2.7,6.3,22,-99.99,,,-99.99,WSDL version 420,2013-01-29 18:34:00,
2013-01-29 13:39:00,73.6,32.0,28.91,WNW,283,3.6,6.0,21,-99.99,,,-99.99,WSDL version 420,2013-01-29 18:39:00,
2013-01-29 13:44:00,72.9,31.5,28.91,WNW,290,2.8,6.3,22,-99.99,,,-99.99,WSDL version 420,2013-01-29 18:44:00,
2013-01-29 13:49:00,72.5,31.5,28.91,SSW,208,1.0,6.3,22,-99.99,,,-99.99,WSDL version 420,2013-01-29 18:49:00,
2013-01-29 13:54:00,71.9,31.0,28.91,West,260,2.5,7.8,22,-99.99,,,-99.99,WSDL version 420,2013-01-29 18:54:00,
2013-01-29 13:59:00,73.2,31.9,28.91,NNE,14,2.7,7.8,21,-99.99,,,-99.99,WSDL version 420,2013-01-29 18:59:00,
2013-01-29 14:04:00,73.6,31.5,28.91,WNW,300,2.8,6.0,21,-99.99,,,-99.99,WSDL version 420,2013-01-29 19:04:00,
2013-01-29 14:09:00,74.3,31.9,28.91,WSW,248,1.6,6.0,21,-99.99,,,-99.99,WSDL version 420,2013-01-29 19:09:00,
2013-01-29 14:14:00,75.7,33.0,28.91,NNW,328,2.0,3.4,21,-99.99,,,-99.99,WSDL version 420,2013-01-29 19:14:00,
2013-01-29 14:19:00,75.4,32.8,28.91,South,188,1.7,5.6,21,-99.99,,,-99.99,WSDL version 420,2013-01-29 19:19:00,
2013-01-29 14:24:00,74.9,32.1,28.88,WNW,300,3.1,5.6,21,-99.99,,,-99.99,WSDL version 420,2013-01-29 19:24:00,
2013-01-29 14:29:00,74.3,31.9,28.88,SSW,208,1.8,5.6,21,-99.99,,,-99.99,WSDL version 420,2013-01-29 19:29:00,
2013-01-29 14:34:00,73.4,30.4,28.88,NW,326,3.6,7.6,18,-99.99,,,-99.99,WSDL version 420,2013-01-29 19:34:00,
2013-01-29 14:39:00,73.6,29.6,28.88,SSE,163,4.2,9.6,19,-99.99,,,-99.99,WSDL version 420,2013-01-29 19:39:00,
2013-01-29 14:44:00,71.6,28.8,28.88,SW,215,2.1,9.6,19,-99.99,,,-99.99,WSDL version 420,2013-01-29 19:44:00,
2013-01-29 14:49:00,71.1,29.1,28.88,WNW,288,3.4,8.5,22,-99.99,,,-99.99,WSDL version 420,2013-01-29 19:49:00,
2013-01-29 14:54:00,71.6,30.1,28.88,WNW,295,1.7,8.5,21,-99.99,,,-99.99,WSDL version 420,2013-01-29 19:54:00,
2013-01-29 14:59:00,71.6,30.0,28.88,South,170,4.5,10.1,22,-99.99,,,-99.99,WSDL version 420,2013-01-29 19:59:00,
2013-01-29 15:04:00,71.5,30.2,28.88,WNW,285,3.2,10.1,21,-99.99,,,-99.99,WSDL version 420,2013-01-29 20:04:00,
2013-01-29 15:09:00,72.7,29.8,28.88,SSW,211,4.9,9.6,19,-99.99,,,-99.99,WSDL version 420,2013-01-29 20:09:00,
2013-01-29 15:14:00,72.1,27.6,28.88,SSW,213,3.6,12.3,19,-99.99,,,-99.99,WSDL version 420,2013-01-29 20:14:00,
2013-01-29 15:19:00,72.3,27.8,28.88,NW,318,2.8,12.3,19,-99.99,,,-99.99,WSDL version 420,2013-01-29 20:19:00,
2013-01-29 15:24:00,71.8,27.4,28.88,NW,305,3.7,6.3,19,-99.99,,,-99.99,WSDL version 420,2013-01-29 20:24:00,
2013-01-29 15:29:00,70.6,26.4,28.88,South,186,2.1,6.3,19,-99.99,,,-99.99,WSDL version 420,2013-01-29 20:29:00,
2013-01-29 15:34:00,71.9,27.4,28.88,SW,218,1.6,5.8,19,-99.99,,,-99.99,WSDL version 420,2013-01-29 20:34:00,
2013-01-29 15:39:00,72.8,28.2,28.88,WSW,258,2.7,4.3,19,-99.99,,,-99.99,WSDL version 420,2013-01-29 20:39:00,
2013-01-29 15:44:00,72.9,28.3,28.88,SSW,205,2.2,4.3,19,-99.99,,,-99.99,WSDL version 420,2013-01-29 20:44:00,
2013-01-29 15:49:00,73.0,28.4,28.88,WSW,243,3.3,6.0,19,-99.99,,,-99.99,WSDL version 420,2013-01-29 20:49:00,
2013-01-29 15:54:00,72.9,28.3,28.88,South,174,2.4,6.0,19,-99.99,,,-99.99,WSDL version 420,2013-01-29 20:54:00,
2013-01-29 15:59:00,71.5,27.1,28.88,South,190,1.5,5.6,19,-99.99,,,-99.99,WSDL version 420,2013-01-29 20:59:00,
2013-01-29 16:04:00,72.4,27.8,28.88,South,188,2.9,5.6,19,-99.99,,,-99.99,WSDL version 420,2013-01-29 21:04:00,
2013-01-29 16:09:00,71.4,27.0,28.85,SSW,195,3.9,6.0,19,-99.99,,,-99.99,WSDL version 420,2013-01-29 21:09:00,
2013-01-29 16:14:00,69.5,26.3,28.85,SSW,200,2.8,6.0,20,-99.99,,,-99.99,WSDL version 420,2013-01-29 21:14:00,
2013-01-29 16:19:00,69.1,27.7,28.85,SSE,155,1.6,6.0,22,-99.99,,,-99.99,WSDL version 420,2013-01-29 21:19:00,
2013-01-29 16:24:00,70.0,29.5,28.85,SSW,200,1.9,4.9,22,-99.99,,,-99.99,WSDL version 420,2013-01-29 21:24:00,
2013-01-29 16:29:00,69.1,28.6,28.85,WNW,293,3.4,6.5,22,-99.99,,,-99.99,WSDL version 420,2013-01-29 21:29:00,
2013-01-29 16:30:00,68.8,28.5,28.85,WSW,238,3.7,6.5,22,-99.99,,,-99.99,WSDL version 420,2013-01-29 21:30:00,
2013-01-29 16:36:00,67.8,27.6,28.85,East,93,0.7,6.5,22,-99.99,,,-99.99,WSDL version 420,2013-01-29 21:36:00,
2013-01-29 16:41:00,67.4,28.4,28.85,NNE,23,0.0,3.4,23,-99.99,,,-99.99,WSDL version 420,2013-01-29 21:41:00,
2013-01-29 16:46:00,67.6,28.5,28.85,NNW,335,1.2,2.7,23,-99.99,,,-99.99,WSDL version 420,2013-01-29 21:46:00,
2013-01-29 16:51:00,67.4,28.3,28.85,SSW,203,2.0,3.6,23,-99.99,,,-99.99,WSDL version 420,2013-01-29 21:51:00,
2013-01-29 16:56:00,67.0,28.0,28.85,WSW,248,0.8,3.6,23,-99.99,,,-99.99,WSDL version 420,2013-01-29 21:56:00,
2013-01-29 17:01:00,65.6,27.8,28.85,SW,233,0.8,3.4,24,-99.99,,,-99.99,WSDL version 420,2013-01-29 22:01:00,
2013-01-29 17:06:00,65.3,28.4,28.85,WSW,243,0.9,3.1,25,-99.99,,,-99.99,WSDL version 420,2013-01-29 22:06:00,
2013-01-29 17:11:00,65.7,28.9,28.85,SSW,194,2.1,4.9,25,-99.99,,,-99.99,WSDL version 420,2013-01-29 22:11:00,
2013-01-29 17:16:00,66.0,28.7,28.85,SSW,208,1.9,5.6,24,-99.99,,,-99.99,WSDL version 420,2013-01-29 22:16:00,
2013-01-29 17:21:00,66.0,29.2,28.85,SW,231,1.9,5.6,25,-99.99,,,-99.99,WSDL version 420,2013-01-29 22:21:00,
2013-01-29 17:26:00,66.1,28.7,28.85,South,188,3.3,4.9,24,-99.99,,,-99.99,WSDL version 420,2013-01-29 22:26:00,
2013-01-29 17:31:00,65.9,29.1,28.85,SW,215,1.9,4.9,25,-99.99,,,-99.99,WSDL version 420,2013-01-29 22:31:00,
2013-01-29 17:36:00,65.5,28.8,28.85,WSW,239,1.1,3.8,25,-99.99,,,-99.99,WSDL version 420,2013-01-29 22:36:00,
2013-01-29 17:41:00,65.3,28.6,28.85,South,180,0.4,3.6,25,-99.99,,,-99.99,WSDL version 420,2013-01-29 22:41:00,
2013-01-29 17:46:00,64.5,27.9,28.85,SSW,205,0.6,2.7,25,-99.99,,,-99.99,WSDL version 420,2013-01-29 22:46:00,
2013-01-29 17:51:00,63.7,28.0,28.85,WNW,285,1.3,3.6,26,-99.99,,,-99.99,WSDL version 420,2013-01-29 22:51:00,
2013-01-29 17:56:00,61.8,27.7,28.85,NNW,335,2.0,3.6,28,-99.99,,,-99.99,WSDL version 420,2013-01-29 22:56:00,
2013-01-29 18:01:00,61.3,29.3,28.85,WNW,298,1.3,3.4,30,-99.99,,,-99.99,WSDL version 420,2013-01-29 23:01:00,
2013-01-29 18:06:00,60.2,30.6,28.85,NW,313,2.3,3.4,34,-99.99,,,-99.99,WSDL version 420,2013-01-29 23:06:00,
2013-01-29 18:11:00,58.8,31.0,28.85,NW,318,1.3,3.4,35,-99.99,,,-99.99,WSDL version 420,2013-01-29 23:11:00,
2013-01-29 18:16:00,57.4,30.2,28.85,WNW,283,0.6,2.5,36,-99.99,,,-99.99,WSDL version 420,2013-01-29 23:16:00,
2013-01-29 18:21:00,56.5,30.2,28.85,WNW,290,0.8,2.9,37,-99.99,,,-99.99,WSDL version 420,2013-01-29 23:21:00,
2013-01-29 18:26:00,56.1,30.7,28.85,West,280,0.7,3.8,40,-99.99,,,-99.99,WSDL version 420,2013-01-29 23:26:00,
2013-01-29 18:31:00,55.7,32.3,28.85,West,270,0.6,3.8,41,-99.99,,,-99.99,WSDL version 420,2013-01-29 23:31:00,
2013-01-29 18:36:00,55.1,32.3,28.85,NW,307,1.8,2.7,43,-99.99,,,-99.99,WSDL version 420,2013-01-29 23:36:00,
2013-01-29 18:41:00,54.7,33.3,28.85,WNW,293,0.5,2.5,44,-99.99,,,-99.99,WSDL version 420,2013-01-29 23:41:00,
2013-01-29 18:46:00,54.1,33.3,28.85,NNW,335,0.0,2.0,45,-99.99,,,-99.99,WSDL version 420,2013-01-29 23:46:00,
2013-01-29 18:51:00,53.8,33.5,28.85,WNW,293,0.4,1.6,46,-99.99,,,-99.99,WSDL version 420,2013-01-29 23:51:00,
2013-01-29 18:56:00,53.3,33.5,28.85,SW,225,1.6,2.5,48,-99.99,,,-99.99,WSDL version 420,2013-01-29 23:56:00,
2013-01-29 19:01:00,53.1,34.4,28.85,WNW,285,0.0,2.5,49,-99.99,,,-99.99,WSDL version 420,2013-01-30 00:01:00,
2013-01-29 19:06:00,52.8,34.3,28.85,West,270,0.0,1.6,49,-99.99,,,-99.99,WSDL version 420,2013-01-30 00:06:00,
2013-01-29 19:11:00,52.6,34.8,28.85,West,270,1.4,2.5,51,-99.99,,,-99.99,WSDL version 420,2013-01-30 00:11:00,
2013-01-29 19:16:00,52.0,34.4,28.85,West,270,0.0,2.5,51,-99.99,,,-99.99,WSDL version 420,2013-01-30 00:16:00,
2013-01-29 19:21:00,51.9,34.9,28.85,NW,315,1.3,2.7,53,-99.99,,,-99.99,WSDL version 420,2013-01-30 00:21:00,
2013-01-29 19:26:00,51.8,35.7,28.85,NNW,330,0.5,2.7,55,-99.99,,,-99.99,WSDL version 420,2013-01-30 00:26:00,
2013-01-29 19:31:00,51.8,36.5,28.85,WSW,248,0.0,2.5,56,-99.99,,,-99.99,WSDL version 420,2013-01-30 00:31:00,
2013-01-29 19:36:00,51.7,37.1,28.85,North,360,0.3,2.5,57,-99.99,,,-99.99,WSDL version 420,2013-01-30 00:36:00,
2013-01-29 19:41:00,51.3,36.3,28.85,WNW,293,0.0,2.5,56,-99.99,,,-99.99,WSDL version 420,2013-01-30 00:41:00,
2013-01-29 19:46:00,51.2,36.6,28.85,North,8,0.7,2.2,58,-99.99,,,-99.99,WSDL version 420,2013-01-30 00:46:00,
2013-01-29 19:51:00,51.0,36.9,28.85,NE,45,0.0,2.5,59,-99.99,,,-99.99,WSDL version 420,2013-01-30 00:51:00,
2013-01-29 19:56:00,50.7,36.8,28.85,WNW,293,0.1,2.5,58,-99.99,,,-99.99,WSDL version 420,2013-01-30 00:56:00,
2013-01-29 20:01:00,50.2,36.3,28.85,NW,325,0.4,1.6,59,-99.99,,,-99.99,WSDL version 420,2013-01-30 01:01:00,
2013-01-29 20:06:00,50.1,37.0,28.82,ESE,121,0.0,2.0,61,-99.99,,,-99.99,WSDL version 420,2013-01-30 01:06:00,
2013-01-29 20:11:00,50.0,37.5,28.82,ESE,107,1.0,2.7,65,-99.99,,,-99.99,WSDL version 420,2013-01-30 01:11:00,
2013-01-29 20:16:00,50.0,39.1,28.82,SSE,152,0.0,2.7,66,-99.99,,,-99.99,WSDL version 420,2013-01-30 01:16:00,
2013-01-29 20:21:00,49.6,37.9,28.85,NW,315,1.4,2.9,64,-99.99,,,-99.99,WSDL version 420,2013-01-30 01:21:00,
2013-01-29 20:26:00,49.2,37.8,28.85,NW,315,0.0,2.9,65,-99.99,,,-99.99,WSDL version 420,2013-01-30 01:26:00,
2013-01-29 20:31:00,48.8,37.2,28.85,NW,304,0.2,2.7,63,-99.99,,,-99.99,WSDL version 420,2013-01-30 01:31:00,
2013-01-29 20:36:00,48.7,37.1,28.82,NW,315,0.0,2.7,65,-99.99,,,-99.99,WSDL version 420,2013-01-30 01:36:00,
2013-01-29 20:41:00,48.2,37.0,28.82,NW,315,0.0,2.7,65,-99.99,,,-99.99,WSDL version 420,2013-01-30 01:41:00,
2013-01-29 20:46:00,48.0,37.2,28.82,West,270,0.7,2.7,66,-99.99,,,-99.99,WSDL version 420,2013-01-30 01:46:00,
2013-01-29 20:51:00,47.8,37.0,28.85,NE,34,0.2,2.7,66,-99.99,,,-99.99,WSDL version 420,2013-01-30 01:51:00,
2013-01-29 20:56:00,47.7,37.1,28.85,West,270,0.0,2.5,67,-99.99,,,-99.99,WSDL version 420,2013-01-30 01:56:00,
2013-01-29 21:01:00,48.2,38.8,28.85,ESE,113,1.0,2.2,71,-99.99,,,-99.99,WSDL version 420,2013-01-30 02:01:00,
2013-01-29 21:06:00,48.0,38.3,28.82,WNW,293,1.9,2.9,68,-99.99,,,-99.99,WSDL version 420,2013-01-30 02:06:00,
2013-01-29 21:11:00,47.7,38.0,28.82,WNW,293,0.4,2.9,69,-99.99,,,-99.99,WSDL version 420,2013-01-30 02:11:00,
2013-01-29 21:16:00,47.4,38.1,28.82,West,270,0.0,2.0,70,-99.99,,,-99.99,WSDL version 420,2013-01-30 02:16:00,
2013-01-29 21:21:00,47.2,37.9,28.82,West,270,0.0,0.0,70,-99.99,,,-99.99,WSDL version 420,2013-01-30 02:21:00,
2013-01-29 21:26:00,47.0,38.1,28.82,NW,318,0.2,1.6,71,-99.99,,,-99.99,WSDL version 420,2013-01-30 02:26:00,
2013-01-29 21:31:00,47.0,38.0,28.82,SW,225,0.0,1.6,71,-99.99,,,-99.99,WSDL version 420,2013-01-30 02:31:00,
2013-01-29 21:36:00,46.8,37.9,28.82,WNW,293,0.0,1.6,71,-99.99,,,-99.99,WSDL version 420,2013-01-30 02:36:00,
2013-01-29 21:41:00,46.7,38.0,28.82,SSE,158,0.0,1.6,72,-99.99,,,-99.99,WSDL version 420,2013-01-30 02:41:00,
2013-01-29 21:46:00,46.4,37.7,28.82,SSW,203,0.0,0.0,72,-99.99,,,-99.99,WSDL version 420,2013-01-30 02:46:00,
2013-01-29 21:51:00,46.3,37.5,28.82,WNW,289,0.0,0.0,71,-99.99,,,-99.99,WSDL version 420,2013-01-30 02:51:00,
2013-01-29 21:56:00,46.2,37.8,28.82,NW,310,0.0,0.0,73,-99.99,,,-99.99,WSDL version 420,2013-01-30 02:56:00,
2013-01-29 22:01:00,46.4,38.2,28.82,WNW,293,0.0,0.0,73,-99.99,,,-99.99,WSDL version 420,2013-01-30 03:01:00,
2013-01-29 22:06:00,46.1,37.9,28.79,WNW,293,0.0,0.0,73,-99.99,,,-99.99,WSDL version 420,2013-01-30 03:06:00,
2013-01-29 22:11:00,46.1,37.9,28.79,WNW,293,0.0,0.0,73,-99.99,,,-99.99,WSDL version 420,2013-01-30 03:11:00,
2013-01-29 22:16:00,46.1,38.3,28.79,WNW,293,0.0,0.0,75,-99.99,,,-99.99,WSDL version 420,2013-01-30 03:16:00,
2013-01-29 22:21:00,46.0,38.6,28.79,East,90,0.0,0.0,75,-99.99,,,-99.99,WSDL version 420,2013-01-30 03:21:00,
2013-01-29 22:26:00,46.0,38.7,28.79,ESE,113,0.0,0.0,76,-99.99,,,-99.99,WSDL version 420,2013-01-30 03:26:00,
2013-01-29 22:31:00,46.0,38.8,28.79,SE,135,0.0,0.0,76,-99.99,,,-99.99,WSDL version 420,2013-01-30 03:31:00,
2013-01-29 22:36:00,45.5,38.0,28.79,South,180,0.0,0.0,74,-99.99,,,-99.99,WSDL version 420,2013-01-30 03:36:00,
2013-01-29 22:41:00,45.2,37.4,28.79,SW,225,0.0,0.0,74,-99.99,,,-99.99,WSDL version 420,2013-01-30 03:41:00,
2013-01-29 22:46:00,45.2,37.6,28.79,SW,225,0.0,0.0,75,-99.99,,,-99.99,WSDL version 420,2013-01-30 03:46:00,
2013-01-29 22:51:00,45.1,37.6,28.79,SW,225,0.0,0.0,75,-99.99,,,-99.99,WSDL version 420,2013-01-30 03:51:00,
2013-01-29 22:56:00,44.7,37.3,28.79,SW,225,0.0,0.0,75,-99.99,,,-99.99,WSDL version 420,2013-01-30 03:56:00,
2013-01-29 23:01:00,44.6,37.2,28.79,SW,225,0.0,0.0,76,-99.99,,,-99.99,WSDL version 420,2013-01-30 04:01:00,
2013-01-29 23:06:00,44.5,37.4,28.79,SW,225,0.0,0.0,76,-99.99,,,-99.99,WSDL version 420,2013-01-30 04:06:00,
2013-01-29 23:11:00,44.5,37.4,28.79,SW,225,0.0,0.0,76,-99.99,,,-99.99,WSDL version 420,2013-01-30 04:11:00,
2013-01-29 23:16:00,44.3,37.3,28.79,SW,225,0.0,0.0,76,-99.99,,,-99.99,WSDL version 420,2013-01-30 04:16:00,
2013-01-29 23:21:00,44.2,37.4,28.76,SW,225,0.0,0.0,77,-99.99,,,-99.99,WSDL version 420,2013-01-30 04:21:00,
2013-01-29 23:26:00,44.2,37.5,28.76,SW,225,0.0,0.0,77,-99.99,,,-99.99,WSDL version 420,2013-01-30 04:26:00,
2013-01-29 23:31:00,44.2,37.5,28.76,SW,225,0.0,0.0,77,-99.99,,,-99.99,WSDL version 420,2013-01-30 04:31:00,
2013-01-29 23:36:00,44.1,37.4,28.76,NW,307,0.0,0.0,77,-99.99,,,-99.99,WSDL version 420,2013-01-30 04:36:00,
2013-01-29 23:41:00,44.2,37.4,28.76,NW,315,0.0,0.0,77,-99.99,,,-99.99,WSDL version 420,2013-01-30 04:41:00,
2013-01-29 23:46:00,44.2,37.7,28.76,NW,315,0.0,0.0,78,-99.99,,,-99.99,WSDL version 420,2013-01-30 04:46:00,
2013-01-29 23:51:00,44.2,37.8,28.76,NW,315,0.0,0.0,78,-99.99,,,-99.99,WSDL version 420,2013-01-30 04:51:00,
2013-01-29 23:56:00,44.2,37.8,28.76,NNW,329,0.0,0.0,78,-99.99,,,-99.99,WSDL version 420,2013-01-30 04:56:00,